createdAt,value
2023-05-03T00:01:37.767Z,10.56
2023-05-03T00:05:46.110Z,10.55
2023-05-03T00:09:56.515Z,10.57
2023-05-03T00:14:04.047Z,10.54
2023-05-03T00:18:12.819Z,10.49
2023-05-03T00:22:21.107Z,10.45
2023-05-03T00:26:29.095Z,10.41
2023-05-03T00:30:36.336Z,10.38
2023-05-03T00:34:44.767Z,10.39
2023-05-03T00:38:52.647Z,10.42
2023-05-03T00:42:59.659Z,10.40
2023-05-03T00:47:08.222Z,10.38
2023-05-03T00:51:16.827Z,10.36
2023-05-03T00:55:26.200Z,10.30
2023-05-03T00:59:36.120Z,10.21
2023-05-03T01:03:43.943Z,10.17
2023-05-03T01:08:01.114Z,10.17
2023-05-03T01:12:21.291Z,10.14
2023-05-03T01:16:33.223Z,10.10
2023-05-03T01:20:42.824Z,10.10
2023-05-03T01:24:53.805Z,10.10
2023-05-03T01:29:01.490Z,10.08
2023-05-03T01:33:15.356Z,10.10
2023-05-03T01:37:26.890Z,10.15
2023-05-03T01:41:35.465Z,10.18
2023-05-03T01:45:44.088Z,10.16
2023-05-03T01:49:52.773Z,10.06
2023-05-03T01:54:00.676Z,9.95
2023-05-03T01:58:08.424Z,9.83
2023-05-03T02:02:17.607Z,9.71
2023-05-03T02:06:30.206Z,9.59
2023-05-03T02:10:38.883Z,9.51
2023-05-03T02:14:46.979Z,9.43
2023-05-03T02:18:59.911Z,9.37
2023-05-03T02:23:07.473Z,9.33
2023-05-03T02:27:15.785Z,9.24
2023-05-03T02:31:27.366Z,9.15
2023-05-03T02:35:36.473Z,9.07
2023-05-03T02:39:44.402Z,8.98
2023-05-03T02:43:52.022Z,8.90
2023-05-03T02:48:00.533Z,8.79
2023-05-03T02:52:08.597Z,8.66
2023-05-03T02:56:16.138Z,8.55
2023-05-03T03:00:24.685Z,8.49
2023-05-03T03:04:33.155Z,8.46
2023-05-03T03:08:41.001Z,8.42
2023-05-03T03:12:48.549Z,8.39
2023-05-03T03:16:57.196Z,8.35
2023-05-03T03:21:06.165Z,8.25
2023-05-03T03:25:14.190Z,8.12
2023-05-03T03:29:21.768Z,8.02
2023-05-03T03:33:34.282Z,7.93
2023-05-03T03:37:42.528Z,7.84
2023-05-03T03:41:50.857Z,7.76
2023-05-03T03:45:59.553Z,7.65
2023-05-03T03:50:08.752Z,7.51
2023-05-03T03:54:17.817Z,7.39
2023-05-03T03:58:26.288Z,7.26
2023-05-03T04:02:34.183Z,7.12
2023-05-03T04:06:44.630Z,7.07
2023-05-03T04:10:52.684Z,7.05
2023-05-03T04:15:02.309Z,6.99
2023-05-03T04:19:10.981Z,6.95
2023-05-03T04:23:27.428Z,6.90
2023-05-03T04:27:39.051Z,6.86
2023-05-03T04:31:47.848Z,6.85
2023-05-03T04:35:59.760Z,6.88
2023-05-03T04:40:09.769Z,6.95
2023-05-03T04:44:18.049Z,7.02
2023-05-03T04:48:26.832Z,7.07
2023-05-03T04:52:35.367Z,7.11
2023-05-03T04:56:43.808Z,7.13
2023-05-03T05:00:52.500Z,7.16
2023-05-03T05:05:00.560Z,7.15
2023-05-03T05:09:21.025Z,7.20
2023-05-03T05:13:29.265Z,7.28
2023-05-03T05:17:37.333Z,7.34
2023-05-03T05:21:48.256Z,7.42
2023-05-03T05:26:00.775Z,7.47
2023-05-03T05:30:10.981Z,7.49
2023-05-03T05:34:19.240Z,7.49
2023-05-03T05:38:28.651Z,7.52
2023-05-03T05:42:36.435Z,7.57
2023-05-03T05:46:44.880Z,7.63
2023-05-03T05:50:52.922Z,7.69
2023-05-03T05:55:01.247Z,7.73
2023-05-03T05:59:09.159Z,7.77
2023-05-03T06:03:17.835Z,7.81
2023-05-03T06:07:26.858Z,7.82
2023-05-03T06:11:36.228Z,7.88
2023-05-03T06:15:44.962Z,8.06
2023-05-03T06:19:52.799Z,8.37
2023-05-03T06:24:00.333Z,8.61
2023-05-03T06:28:08.264Z,8.74
2023-05-03T06:32:15.963Z,8.87
2023-05-03T06:36:23.621Z,9.01
2023-05-03T06:40:32.176Z,9.17
2023-05-03T06:44:42.183Z,9.27
2023-05-03T06:48:50.150Z,9.33
2023-05-03T06:52:57.956Z,9.40
2023-05-03T06:57:06.214Z,9.48
2023-05-03T07:01:14.056Z,9.52
2023-05-03T07:05:22.932Z,9.62
2023-05-03T07:09:42.282Z,9.70
2023-05-03T07:13:53.004Z,9.86
2023-05-03T07:18:01.849Z,10.05
2023-05-03T07:22:10.196Z,10.20
2023-05-03T07:26:17.327Z,10.32
2023-05-03T07:30:26.418Z,10.40
2023-05-03T07:34:39.000Z,10.43
2023-05-03T07:38:47.098Z,10.53
2023-05-03T07:42:55.115Z,10.78
2023-05-03T07:47:03.287Z,11.02
2023-05-03T07:51:12.768Z,11.18
2023-05-03T07:55:20.599Z,11.36
2023-05-03T07:59:29.136Z,11.49
2023-05-03T08:03:37.275Z,11.61
2023-05-03T08:07:45.328Z,11.65
2023-05-03T08:11:53.148Z,11.72
2023-05-03T08:16:02.235Z,11.79
2023-05-03T08:20:13.215Z,11.83
2023-05-03T08:24:22.268Z,11.95
2023-05-03T08:28:30.804Z,12.01
2023-05-03T08:32:38.300Z,12.04
2023-05-03T08:36:48.974Z,12.06
2023-05-03T08:40:59.636Z,12.09
2023-05-03T08:45:08.775Z,12.11
2023-05-03T08:49:17.591Z,12.27
2023-05-03T08:53:26.688Z,12.32
2023-05-03T08:57:35.337Z,12.40
2023-05-03T09:01:43.985Z,12.61
2023-05-03T09:05:52.354Z,12.63
2023-05-03T09:10:00.788Z,12.43
2023-05-03T09:14:14.437Z,12.41
2023-05-03T09:18:24.226Z,12.50
2023-05-03T09:22:37.997Z,12.69
2023-05-03T09:26:47.599Z,12.81
2023-05-03T09:31:07.934Z,12.90
2023-05-03T09:35:17.669Z,13.09
2023-05-03T09:39:26.490Z,13.14
2023-05-03T09:43:36.816Z,13.09
2023-05-03T09:47:56.192Z,13.20
2023-05-03T09:52:06.644Z,13.44
2023-05-03T09:56:15.531Z,13.52
2023-05-03T10:00:26.363Z,13.60
2023-05-03T10:04:43.542Z,13.74
2023-05-03T10:08:58.457Z,13.57
2023-05-03T10:13:07.672Z,13.39
2023-05-03T10:17:20.319Z,13.23
2023-05-03T10:21:37.241Z,13.19
2023-05-03T10:26:19.404Z,13.45
2023-05-03T10:30:36.182Z,13.74
2023-05-03T10:34:47.221Z,13.76
2023-05-03T10:38:57.346Z,13.83
2023-05-03T10:43:05.313Z,14.02
2023-05-03T10:47:18.587Z,14.01
2023-05-03T10:51:38.958Z,13.99
2023-05-03T10:56:08.613Z,13.82
2023-05-03T11:00:19.427Z,13.62
2023-05-03T11:04:46.028Z,13.44
2023-05-03T11:08:53.883Z,13.68
2023-05-03T11:13:03.155Z,13.96
2023-05-03T11:17:12.804Z,14.34
2023-05-03T11:21:22.391Z,14.62
2023-05-03T11:25:30.647Z,14.81
2023-05-03T11:29:42.399Z,15.13
2023-05-03T11:33:50.882Z,15.29
2023-05-03T11:37:59.797Z,14.96
2023-05-03T11:42:09.262Z,14.55
2023-05-03T11:46:18.698Z,14.41
2023-05-03T11:50:48.128Z,14.66
2023-05-03T11:54:56.477Z,14.95
2023-05-03T11:59:04.218Z,15.32
2023-05-03T12:03:11.991Z,15.16
2023-05-03T12:07:22.853Z,14.99
2023-05-03T12:11:35.329Z,14.82
2023-05-03T12:15:52.093Z,14.66
2023-05-03T12:24:32.982Z,15.17
2023-05-03T12:28:41.835Z,15.45
2023-05-03T12:32:51.087Z,15.82
2023-05-03T12:37:04.620Z,15.94
2023-05-03T12:41:50.707Z,15.85
2023-05-03T12:45:53.459Z,16.04
2023-05-03T12:50:18.838Z,16.25
2023-05-03T12:54:27.399Z,16.33
2023-05-03T12:58:56.832Z,16.43
2023-05-03T13:07:18.439Z,16.04
2023-05-03T13:11:35.237Z,15.76
2023-05-03T13:15:44.125Z,15.89
2023-05-03T13:19:52.956Z,16.22
2023-05-03T13:24:01.389Z,16.56
2023-05-03T13:28:09.303Z,16.86
2023-05-03T13:32:17.551Z,16.98
2023-05-03T13:36:26.969Z,17.34
2023-05-03T13:40:34.619Z,17.62
2023-05-03T13:44:42.981Z,17.93
2023-05-03T13:48:50.645Z,17.94
2023-05-03T13:52:58.782Z,17.88
2023-05-03T13:57:06.544Z,17.70
2023-05-03T14:01:14.091Z,17.45
2023-05-03T14:05:22.328Z,17.31
2023-05-03T14:09:30.371Z,17.39
2023-05-03T14:13:53.861Z,17.29
2023-05-03T14:18:05.395Z,17.00
2023-05-03T14:22:13.599Z,16.81
2023-05-03T14:26:22.357Z,16.77
2023-05-03T14:30:30.500Z,16.50
2023-05-03T14:34:38.223Z,16.33
2023-05-03T14:38:46.154Z,16.36
2023-05-03T14:42:56.400Z,16.44
2023-05-03T14:47:04.662Z,16.55
2023-05-03T14:51:13.489Z,16.55
2023-05-03T14:55:22.939Z,16.55
2023-05-03T14:59:30.581Z,16.48
2023-05-03T15:03:39.727Z,16.39
2023-05-03T15:07:47.727Z,16.38
2023-05-03T15:11:55.476Z,16.25
2023-05-03T15:16:02.978Z,16.05
2023-05-03T15:20:14.735Z,15.95
2023-05-03T15:24:23.694Z,15.94
2023-05-03T15:28:32.824Z,15.95
2023-05-03T15:32:41.557Z,15.98
2023-05-03T15:36:50.053Z,16.01
2023-05-03T15:40:57.797Z,15.97
2023-05-03T15:45:06.173Z,15.87
2023-05-03T15:49:14.527Z,15.67
2023-05-03T15:53:22.642Z,15.58
2023-05-03T15:57:32.031Z,15.46
2023-05-03T16:01:40.942Z,15.34
2023-05-03T16:05:49.051Z,15.30
2023-05-03T16:09:58.108Z,15.32
2023-05-03T16:14:09.710Z,15.36
2023-05-03T16:18:17.987Z,15.42
2023-05-03T16:22:27.131Z,15.44
2023-05-03T16:26:34.690Z,15.36
2023-05-03T16:30:42.648Z,15.33
2023-05-03T16:34:52.104Z,15.31
2023-05-03T16:39:00.289Z,15.26
2023-05-03T16:43:08.033Z,15.25
2023-05-03T16:47:17.508Z,15.17
2023-05-03T16:51:25.453Z,15.17
2023-05-03T16:55:33.346Z,15.19
2023-05-03T16:59:41.332Z,15.17
2023-05-03T17:03:49.060Z,15.11
2023-05-03T17:07:58.621Z,14.94
2023-05-03T17:12:07.098Z,14.82
2023-05-03T17:16:16.391Z,14.84
2023-05-03T17:20:23.863Z,14.88
2023-05-03T17:24:31.439Z,14.82
2023-05-03T17:28:40.542Z,14.74
2023-05-03T17:32:49.787Z,14.66
2023-05-03T17:36:57.968Z,14.62
2023-05-03T17:41:10.535Z,14.56
2023-05-03T17:45:19.609Z,14.47
2023-05-03T17:49:27.861Z,14.37
2023-05-03T17:53:36.815Z,14.27
2023-05-03T17:57:47.609Z,14.15
2023-05-03T18:01:55.109Z,14.00
2023-05-03T18:06:03.441Z,13.86
2023-05-03T18:10:16.607Z,13.72
2023-05-03T18:14:24.173Z,13.58
2023-05-03T18:18:33.004Z,13.47
2023-05-03T18:22:43.874Z,13.34
2023-05-03T18:26:51.692Z,13.18
2023-05-03T18:30:59.528Z,13.02
2023-05-03T18:35:08.374Z,12.87
2023-05-03T18:39:17.882Z,12.68
2023-05-03T18:43:27.846Z,12.50
2023-05-03T18:47:35.331Z,12.34
2023-05-03T18:51:43.843Z,12.15
2023-05-03T18:55:53.411Z,11.94
2023-05-03T19:00:02.056Z,11.80
2023-05-03T19:04:10.443Z,11.71
2023-05-03T19:08:18.928Z,11.60
2023-05-03T19:12:27.514Z,11.48
2023-05-03T19:16:35.647Z,11.36
2023-05-03T19:20:44.786Z,11.21
2023-05-03T19:24:53.311Z,11.07
2023-05-03T19:29:01.165Z,10.98
2023-05-03T19:33:09.118Z,10.91
2023-05-03T19:37:17.007Z,10.82
2023-05-03T19:41:25.370Z,10.72
2023-05-03T19:45:34.171Z,10.63
2023-05-03T19:49:41.958Z,10.54
2023-05-03T19:53:49.906Z,10.45
2023-05-03T19:58:00.560Z,10.36
2023-05-03T20:02:09.027Z,10.26
2023-05-03T20:06:17.814Z,10.17
2023-05-03T20:10:27.615Z,10.06
2023-05-03T20:14:36.465Z,9.96
2023-05-03T20:18:47.888Z,9.86
2023-05-03T20:22:56.177Z,9.75
2023-05-03T20:27:03.959Z,9.64
2023-05-03T20:31:12.720Z,9.53
2023-05-03T20:35:21.254Z,9.41
2023-05-03T20:39:30.606Z,9.30
2023-05-03T20:43:39.024Z,9.21
2023-05-03T20:47:46.773Z,9.15
2023-05-03T20:51:57.719Z,9.13
2023-05-03T20:56:08.085Z,9.08
2023-05-03T21:00:16.915Z,9.03
2023-05-03T21:04:25.536Z,8.96
2023-05-03T21:08:33.501Z,8.88
2023-05-03T21:12:43.550Z,8.78
2023-05-03T21:16:51.984Z,8.68
2023-05-03T21:20:59.482Z,8.57
2023-05-03T21:25:08.993Z,8.46
2023-05-03T21:29:17.553Z,8.36
2023-05-03T21:33:25.486Z,8.27
2023-05-03T21:37:33.365Z,8.19
2023-05-03T21:41:43.958Z,8.11
2023-05-03T21:45:52.360Z,8.06
2023-05-03T21:50:01.707Z,8.02
2023-05-03T21:54:10.583Z,7.96
2023-05-03T21:58:18.356Z,7.90
2023-05-03T22:02:26.156Z,7.80
2023-05-03T22:06:34.833Z,7.69
2023-05-03T22:10:43.201Z,7.62
2023-05-03T22:14:50.856Z,7.54
2023-05-03T22:18:59.350Z,7.45
2023-05-03T22:23:07.454Z,7.37
2023-05-03T22:27:15.248Z,7.31
2023-05-03T22:31:22.946Z,7.27
2023-05-03T22:35:31.090Z,7.24
2023-05-03T22:39:39.605Z,7.20
2023-05-03T22:43:47.746Z,7.16
2023-05-03T22:47:55.796Z,7.10
2023-05-03T22:52:04.413Z,7.03
2023-05-03T22:56:12.681Z,6.97
2023-05-03T23:00:21.789Z,6.88
2023-05-03T23:04:31.119Z,6.81
2023-05-03T23:08:39.199Z,6.73
2023-05-03T23:12:47.148Z,6.68
2023-05-03T23:16:54.654Z,6.67
2023-05-03T23:21:02.880Z,6.63
2023-05-03T23:25:13.203Z,6.57
2023-05-03T23:29:21.474Z,6.49
2023-05-03T23:33:29.624Z,6.41
2023-05-03T23:37:37.400Z,6.32
2023-05-03T23:41:45.048Z,6.22
2023-05-03T23:45:53.513Z,6.18
2023-05-03T23:50:02.042Z,6.16
2023-05-03T23:54:11.065Z,6.14
2023-05-03T23:58:20.484Z,6.13
